sensor_id;sensor_type;location;lat;lon;timestamp;P1;durP1;ratioP1;P2;durP2;ratioP2
83145;SDS011;73037;51.110;4.706;2023-10-13T00:00:40;9.57;;;5.78;;
83145;SDS011;73037;51.110;4.706;2023-10-13T00:03:06;12.75;;;4.93;;
83145;SDS011;73037;51.110;4.706;2023-10-13T00:05:40;11.38;;;5.03;;
83145;SDS011;73037;51.110;4.706;2023-10-13T00:08:07;10.52;;;4.78;;
83145;SDS011;73037;51.110;4.706;2023-10-13T00:10:34;11.73;;;5.75;;
83145;SDS011;73037;51.110;4.706;2023-10-13T00:13:00;15.07;;;5.43;;
83145;SDS011;73037;51.110;4.706;2023-10-13T00:15:47;10.57;;;5.75;;
83145;SDS011;73037;51.110;4.706;2023-10-13T00:18:29;10.75;;;5.00;;
83145;SDS011;73037;51.110;4.706;2023-10-13T00:20:59;13.23;;;6.25;;
83145;SDS011;73037;51.110;4.706;2023-10-13T00:23:25;14.93;;;6.13;;
83145;SDS011;73037;51.110;4.706;2023-10-13T00:25:57;14.35;;;6.53;;
83145;SDS011;73037;51.110;4.706;2023-10-13T00:28:24;27.95;;;15.55;;
83145;SDS011;73037;51.110;4.706;2023-10-13T00:31:11;18.23;;;9.82;;
83145;SDS011;73037;51.110;4.706;2023-10-13T00:33:39;18.80;;;10.15;;
83145;SDS011;73037;51.110;4.706;2023-10-13T00:36:06;20.23;;;11.90;;
83145;SDS011;73037;51.110;4.706;2023-10-13T00:38:34;26.63;;;15.05;;
83145;SDS011;73037;51.110;4.706;2023-10-13T00:41:02;54.53;;;32.78;;
83145;SDS011;73037;51.110;4.706;2023-10-13T00:43:43;28.67;;;15.02;;
83145;SDS011;73037;51.110;4.706;2023-10-13T00:46:10;18.00;;;8.35;;
83145;SDS011;73037;51.110;4.706;2023-10-13T00:48:39;16.55;;;8.60;;
83145;SDS011;73037;51.110;4.706;2023-10-13T00:51:08;18.20;;;7.80;;
83145;SDS011;73037;51.110;4.706;2023-10-13T00:56:21;20.60;;;9.15;;
83145;SDS011;73037;51.110;4.706;2023-10-13T00:58:52;26.60;;;15.98;;
83145;SDS011;73037;51.110;4.706;2023-10-13T01:01:22;21.45;;;10.38;;
83145;SDS011;73037;51.110;4.706;2023-10-13T01:03:48;19.00;;;8.95;;
83145;SDS011;73037;51.110;4.706;2023-10-13T01:06:18;18.98;;;7.60;;
83145;SDS011;73037;51.110;4.706;2023-10-13T01:08:46;18.02;;;7.53;;
83145;SDS011;73037;51.110;4.706;2023-10-13T01:11:19;17.88;;;7.07;;
83145;SDS011;73037;51.110;4.706;2023-10-13T01:13:48;15.80;;;7.68;;
83145;SDS011;73037;51.110;4.706;2023-10-13T01:16:16;16.38;;;7.80;;
83145;SDS011;73037;51.110;4.706;2023-10-13T01:18:46;15.43;;;8.13;;
83145;SDS011;73037;51.110;4.706;2023-10-13T01:21:17;17.20;;;7.30;;
83145;SDS011;73037;51.110;4.706;2023-10-13T01:23:51;18.58;;;7.47;;
83145;SDS011;73037;51.110;4.706;2023-10-13T01:26:17;16.00;;;7.10;;
83145;SDS011;73037;51.110;4.706;2023-10-13T01:28:56;17.40;;;7.57;;
83145;SDS011;73037;51.110;4.706;2023-10-13T01:31:23;16.02;;;7.55;;
83145;SDS011;73037;51.110;4.706;2023-10-13T01:33:54;17.70;;;8.15;;
83145;SDS011;73037;51.110;4.706;2023-10-13T01:36:23;19.55;;;7.38;;
83145;SDS011;73037;51.110;4.706;2023-10-13T01:38:50;23.33;;;9.02;;
83145;SDS011;73037;51.110;4.706;2023-10-13T01:41:16;20.27;;;8.48;;
83145;SDS011;73037;51.110;4.706;2023-10-13T01:43:43;20.80;;;9.48;;
83145;SDS011;73037;51.110;4.706;2023-10-13T01:46:09;20.60;;;9.13;;
83145;SDS011;73037;51.110;4.706;2023-10-13T01:48:38;21.35;;;8.73;;
83145;SDS011;73037;51.110;4.706;2023-10-13T01:51:05;26.10;;;10.20;;
83145;SDS011;73037;51.110;4.706;2023-10-13T01:53:35;25.88;;;10.65;;
83145;SDS011;73037;51.110;4.706;2023-10-13T01:56:01;21.98;;;10.23;;
83145;SDS011;73037;51.110;4.706;2023-10-13T01:58:30;26.52;;;10.65;;
83145;SDS011;73037;51.110;4.706;2023-10-13T02:00:56;28.50;;;12.05;;
83145;SDS011;73037;51.110;4.706;2023-10-13T02:03:24;35.00;;;12.52;;
83145;SDS011;73037;51.110;4.706;2023-10-13T02:05:54;61.30;;;30.63;;
83145;SDS011;73037;51.110;4.706;2023-10-13T02:08:22;87.20;;;38.95;;
83145;SDS011;73037;51.110;4.706;2023-10-13T02:10:53;45.47;;;17.42;;
83145;SDS011;73037;51.110;4.706;2023-10-13T02:13:20;44.55;;;17.05;;
83145;SDS011;73037;51.110;4.706;2023-10-13T02:15:48;47.40;;;16.40;;
83145;SDS011;73037;51.110;4.706;2023-10-13T02:18:18;50.63;;;20.98;;
83145;SDS011;73037;51.110;4.706;2023-10-13T02:21:06;50.42;;;17.98;;
83145;SDS011;73037;51.110;4.706;2023-10-13T02:23:38;62.75;;;21.63;;
83145;SDS011;73037;51.110;4.706;2023-10-13T02:26:09;50.38;;;16.98;;
83145;SDS011;73037;51.110;4.706;2023-10-13T02:28:41;59.97;;;18.83;;
83145;SDS011;73037;51.110;4.706;2023-10-13T02:31:07;57.50;;;20.15;;
83145;SDS011;73037;51.110;4.706;2023-10-13T02:33:33;54.17;;;18.23;;
83145;SDS011;73037;51.110;4.706;2023-10-13T02:38:28;55.33;;;18.70;;
83145;SDS011;73037;51.110;4.706;2023-10-13T02:40:57;52.20;;;19.40;;
83145;SDS011;73037;51.110;4.706;2023-10-13T02:43:30;50.05;;;16.58;;
83145;SDS011;73037;51.110;4.706;2023-10-13T02:45:59;49.10;;;17.10;;
83145;SDS011;73037;51.110;4.706;2023-10-13T02:48:26;44.33;;;17.75;;
83145;SDS011;73037;51.110;4.706;2023-10-13T02:51:15;49.15;;;17.10;;
83145;SDS011;73037;51.110;4.706;2023-10-13T02:53:44;49.67;;;16.50;;
83145;SDS011;73037;51.110;4.706;2023-10-13T02:56:18;43.38;;;15.15;;
83145;SDS011;73037;51.110;4.706;2023-10-13T02:58:50;49.55;;;16.10;;
83145;SDS011;73037;51.110;4.706;2023-10-13T03:01:29;44.38;;;15.43;;
83145;SDS011;73037;51.110;4.706;2023-10-13T03:04:02;41.08;;;14.95;;
83145;SDS011;73037;51.110;4.706;2023-10-13T03:06:28;39.53;;;14.48;;
83145;SDS011;73037;51.110;4.706;2023-10-13T03:09:04;35.72;;;13.48;;
83145;SDS011;73037;51.110;4.706;2023-10-13T03:11:44;43.13;;;14.10;;
83145;SDS011;73037;51.110;4.706;2023-10-13T03:14:16;42.40;;;14.15;;
83145;SDS011;73037;51.110;4.706;2023-10-13T03:19:27;48.70;;;14.80;;
83145;SDS011;73037;51.110;4.706;2023-10-13T03:22:02;46.03;;;14.35;;
83145;SDS011;73037;51.110;4.706;2023-10-13T03:24:37;49.45;;;14.68;;
83145;SDS011;73037;51.110;4.706;2023-10-13T03:27:12;46.45;;;14.00;;
83145;SDS011;73037;51.110;4.706;2023-10-13T03:29:43;43.47;;;13.98;;
83145;SDS011;73037;51.110;4.706;2023-10-13T03:32:11;39.70;;;12.73;;
83145;SDS011;73037;51.110;4.706;2023-10-13T03:34:41;46.38;;;14.30;;
83145;SDS011;73037;51.110;4.706;2023-10-13T03:37:25;41.35;;;13.48;;
83145;SDS011;73037;51.110;4.706;2023-10-13T03:40:10;46.33;;;13.00;;
83145;SDS011;73037;51.110;4.706;2023-10-13T03:42:49;46.13;;;14.25;;
83145;SDS011;73037;51.110;4.706;2023-10-13T03:45:46;38.97;;;13.23;;
83145;SDS011;73037;51.110;4.706;2023-10-13T03:48:16;41.10;;;13.40;;
83145;SDS011;73037;51.110;4.706;2023-10-13T03:51:01;42.80;;;13.25;;
83145;SDS011;73037;51.110;4.706;2023-10-13T03:53:39;47.58;;;13.27;;
83145;SDS011;73037;51.110;4.706;2023-10-13T03:56:20;46.55;;;13.10;;
83145;SDS011;73037;51.110;4.706;2023-10-13T03:58:53;45.47;;;13.55;;
83145;SDS011;73037;51.110;4.706;2023-10-13T04:01:22;52.40;;;13.15;;
83145;SDS011;73037;51.110;4.706;2023-10-13T04:03:57;43.65;;;12.23;;
83145;SDS011;73037;51.110;4.706;2023-10-13T04:06:34;43.63;;;12.57;;
83145;SDS011;73037;51.110;4.706;2023-10-13T04:09:16;45.15;;;12.10;;
83145;SDS011;73037;51.110;4.706;2023-10-13T04:11:54;53.80;;;12.63;;
83145;SDS011;73037;51.110;4.706;2023-10-13T04:14:29;42.95;;;12.20;;
83145;SDS011;73037;51.110;4.706;2023-10-13T04:17:14;42.60;;;12.18;;
83145;SDS011;73037;51.110;4.706;2023-10-13T04:19:40;51.25;;;12.02;;
83145;SDS011;73037;51.110;4.706;2023-10-13T04:22:24;55.47;;;12.18;;
83145;SDS011;73037;51.110;4.706;2023-10-13T04:25:14;46.70;;;11.93;;
83145;SDS011;73037;51.110;4.706;2023-10-13T04:28:00;47.65;;;11.32;;
83145;SDS011;73037;51.110;4.706;2023-10-13T04:30:42;40.70;;;11.07;;
83145;SDS011;73037;51.110;4.706;2023-10-13T04:33:23;48.20;;;12.57;;
83145;SDS011;73037;51.110;4.706;2023-10-13T04:36:11;59.10;;;16.77;;
83145;SDS011;73037;51.110;4.706;2023-10-13T04:38:47;51.40;;;17.63;;
83145;SDS011;73037;51.110;4.706;2023-10-13T04:41:38;55.30;;;14.55;;
83145;SDS011;73037;51.110;4.706;2023-10-13T04:44:08;51.97;;;11.93;;
83145;SDS011;73037;51.110;4.706;2023-10-13T04:46:56;82.03;;;27.67;;
83145;SDS011;73037;51.110;4.706;2023-10-13T04:49:26;62.13;;;19.17;;
83145;SDS011;73037;51.110;4.706;2023-10-13T04:52:15;47.67;;;14.18;;
83145;SDS011;73037;51.110;4.706;2023-10-13T04:54:59;35.60;;;10.50;;
83145;SDS011;73037;51.110;4.706;2023-10-13T04:57:35;188.50;;;64.97;;
83145;SDS011;73037;51.110;4.706;2023-10-13T05:00:15;49.95;;;15.55;;
83145;SDS011;73037;51.110;4.706;2023-10-13T05:02:47;84.10;;;27.45;;
83145;SDS011;73037;51.110;4.706;2023-10-13T05:05:26;43.65;;;13.98;;
83145;SDS011;73037;51.110;4.706;2023-10-13T05:08:10;127.68;;;43.47;;
83145;SDS011;73037;51.110;4.706;2023-10-13T05:10:54;83.95;;;25.27;;
83145;SDS011;73037;51.110;4.706;2023-10-13T05:13:38;45.08;;;13.07;;
83145;SDS011;73037;51.110;4.706;2023-10-13T05:16:22;65.55;;;27.55;;
83145;SDS011;73037;51.110;4.706;2023-10-13T05:19:07;31.40;;;14.27;;
83145;SDS011;73037;51.110;4.706;2023-10-13T05:21:51;35.63;;;18.73;;
83145;SDS011;73037;51.110;4.706;2023-10-13T05:24:35;30.95;;;10.23;;
83145;SDS011;73037;51.110;4.706;2023-10-13T05:27:19;35.47;;;13.93;;
83145;SDS011;73037;51.110;4.706;2023-10-13T05:30:04;33.75;;;14.75;;
83145;SDS011;73037;51.110;4.706;2023-10-13T05:32:49;33.70;;;10.63;;
83145;SDS011;73037;51.110;4.706;2023-10-13T05:35:33;30.17;;;10.40;;
83145;SDS011;73037;51.110;4.706;2023-10-13T05:38:17;30.98;;;9.65;;
83145;SDS011;73037;51.110;4.706;2023-10-13T05:41:02;24.88;;;8.43;;
83145;SDS011;73037;51.110;4.706;2023-10-13T05:43:48;25.67;;;10.45;;
83145;SDS011;73037;51.110;4.706;2023-10-13T05:46:33;30.08;;;8.45;;
83145;SDS011;73037;51.110;4.706;2023-10-13T05:49:02;22.30;;;9.07;;
83145;SDS011;73037;51.110;4.706;2023-10-13T05:51:42;28.90;;;11.10;;
83145;SDS011;73037;51.110;4.706;2023-10-13T05:54:11;21.75;;;7.15;;
83145;SDS011;73037;51.110;4.706;2023-10-13T05:56:48;27.73;;;7.72;;
83145;SDS011;73037;51.110;4.706;2023-10-13T05:59:34;27.73;;;9.15;;
83145;SDS011;73037;51.110;4.706;2023-10-13T06:02:22;29.25;;;8.13;;
83145;SDS011;73037;51.110;4.706;2023-10-13T06:05:08;29.85;;;9.77;;
83145;SDS011;73037;51.110;4.706;2023-10-13T06:07:54;29.38;;;9.20;;
83145;SDS011;73037;51.110;4.706;2023-10-13T06:10:39;29.42;;;8.52;;
83145;SDS011;73037;51.110;4.706;2023-10-13T06:13:24;27.33;;;8.52;;
83145;SDS011;73037;51.110;4.706;2023-10-13T06:16:14;23.80;;;7.22;;
83145;SDS011;73037;51.110;4.706;2023-10-13T06:19:00;25.35;;;8.27;;
83145;SDS011;73037;51.110;4.706;2023-10-13T06:21:44;28.38;;;8.38;;
83145;SDS011;73037;51.110;4.706;2023-10-13T06:24:29;29.00;;;9.45;;
83145;SDS011;73037;51.110;4.706;2023-10-13T06:27:14;28.30;;;7.35;;
83145;SDS011;73037;51.110;4.706;2023-10-13T06:29:59;44.25;;;14.63;;
83145;SDS011;73037;51.110;4.706;2023-10-13T06:32:27;32.67;;;10.88;;
83145;SDS011;73037;51.110;4.706;2023-10-13T06:34:53;28.27;;;9.93;;
83145;SDS011;73037;51.110;4.706;2023-10-13T06:37:42;34.63;;;13.57;;
83145;SDS011;73037;51.110;4.706;2023-10-13T06:40:11;28.85;;;11.48;;
83145;SDS011;73037;51.110;4.706;2023-10-13T06:42:49;37.20;;;12.98;;
83145;SDS011;73037;51.110;4.706;2023-10-13T06:45:15;27.70;;;11.38;;
83145;SDS011;73037;51.110;4.706;2023-10-13T06:47:44;24.95;;;9.20;;
83145;SDS011;73037;51.110;4.706;2023-10-13T06:50:10;20.55;;;7.28;;
83145;SDS011;73037;51.110;4.706;2023-10-13T06:52:47;24.42;;;8.55;;
83145;SDS011;73037;51.110;4.706;2023-10-13T06:55:14;35.03;;;14.25;;
83145;SDS011;73037;51.110;4.706;2023-10-13T06:57:43;28.33;;;12.82;;
83145;SDS011;73037;51.110;4.706;2023-10-13T07:02:44;39.08;;;19.50;;
83145;SDS011;73037;51.110;4.706;2023-10-13T07:05:11;27.77;;;12.32;;
83145;SDS011;73037;51.110;4.706;2023-10-13T07:07:39;25.17;;;9.40;;
83145;SDS011;73037;51.110;4.706;2023-10-13T07:10:09;25.30;;;12.00;;
83145;SDS011;73037;51.110;4.706;2023-10-13T07:12:36;30.85;;;16.08;;
83145;SDS011;73037;51.110;4.706;2023-10-13T07:15:03;31.45;;;16.98;;
83145;SDS011;73037;51.110;4.706;2023-10-13T07:17:41;22.63;;;8.15;;
83145;SDS011;73037;51.110;4.706;2023-10-13T07:20:09;25.95;;;12.60;;
83145;SDS011;73037;51.110;4.706;2023-10-13T07:22:53;16.80;;;8.98;;
83145;SDS011;73037;51.110;4.706;2023-10-13T07:25:28;33.78;;;19.70;;
83145;SDS011;73037;51.110;4.706;2023-10-13T07:28:01;19.67;;;9.07;;
83145;SDS011;73037;51.110;4.706;2023-10-13T07:30:28;29.35;;;16.52;;
83145;SDS011;73037;51.110;4.706;2023-10-13T07:32:56;29.10;;;14.95;;
83145;SDS011;73037;51.110;4.706;2023-10-13T07:35:24;65.78;;;35.67;;
83145;SDS011;73037;51.110;4.706;2023-10-13T07:37:51;28.73;;;15.75;;
83145;SDS011;73037;51.110;4.706;2023-10-13T07:40:20;19.63;;;6.95;;
83145;SDS011;73037;51.110;4.706;2023-10-13T07:42:55;15.45;;;7.10;;
83145;SDS011;73037;51.110;4.706;2023-10-13T07:45:38;24.90;;;10.57;;
83145;SDS011;73037;51.110;4.706;2023-10-13T07:50:43;26.25;;;13.25;;
83145;SDS011;73037;51.110;4.706;2023-10-13T07:53:10;19.25;;;8.48;;
83145;SDS011;73037;51.110;4.706;2023-10-13T07:55:49;20.60;;;9.55;;
83145;SDS011;73037;51.110;4.706;2023-10-13T07:58:24;17.00;;;8.38;;
83145;SDS011;73037;51.110;4.706;2023-10-13T08:00:53;28.88;;;12.25;;
83145;SDS011;73037;51.110;4.706;2023-10-13T08:03:42;19.98;;;8.95;;
83145;SDS011;73037;51.110;4.706;2023-10-13T08:06:17;18.55;;;8.10;;
83145;SDS011;73037;51.110;4.706;2023-10-13T08:08:43;14.43;;;6.07;;
83145;SDS011;73037;51.110;4.706;2023-10-13T08:13:57;16.58;;;6.22;;
83145;SDS011;73037;51.110;4.706;2023-10-13T08:16:55;16.50;;;6.97;;
83145;SDS011;73037;51.110;4.706;2023-10-13T08:19:32;22.13;;;8.38;;
83145;SDS011;73037;51.110;4.706;2023-10-13T08:22:11;29.25;;;13.57;;
83145;SDS011;73037;51.110;4.706;2023-10-13T08:24:43;26.95;;;11.07;;
83145;SDS011;73037;51.110;4.706;2023-10-13T08:27:09;24.20;;;11.05;;
83145;SDS011;73037;51.110;4.706;2023-10-13T08:29:53;16.13;;;7.45;;
83145;SDS011;73037;51.110;4.706;2023-10-13T08:32:26;45.97;;;18.67;;
83145;SDS011;73037;51.110;4.706;2023-10-13T08:34:52;18.23;;;8.00;;
83145;SDS011;73037;51.110;4.706;2023-10-13T08:37:19;28.17;;;10.77;;
83145;SDS011;73037;51.110;4.706;2023-10-13T08:39:46;20.20;;;8.02;;
83145;SDS011;73037;51.110;4.706;2023-10-13T08:42:39;19.15;;;7.95;;
83145;SDS011;73037;51.110;4.706;2023-10-13T08:45:08;21.10;;;7.10;;
83145;SDS011;73037;51.110;4.706;2023-10-13T08:47:53;25.40;;;10.20;;
83145;SDS011;73037;51.110;4.706;2023-10-13T08:50:37;16.98;;;8.65;;
83145;SDS011;73037;51.110;4.706;2023-10-13T08:53:23;31.83;;;15.50;;
83145;SDS011;73037;51.110;4.706;2023-10-13T08:58:36;19.58;;;8.68;;
83145;SDS011;73037;51.110;4.706;2023-10-13T09:01:36;24.48;;;11.43;;
83145;SDS011;73037;51.110;4.706;2023-10-13T09:04:05;18.02;;;8.43;;
83145;SDS011;73037;51.110;4.706;2023-10-13T09:06:49;15.20;;;6.55;;
83145;SDS011;73037;51.110;4.706;2023-10-13T09:12:27;27.27;;;11.98;;
83145;SDS011;73037;51.110;4.706;2023-10-13T09:14:58;17.42;;;7.38;;
83145;SDS011;73037;51.110;4.706;2023-10-13T09:17:43;15.27;;;6.13;;
83145;SDS011;73037;51.110;4.706;2023-10-13T09:20:15;22.08;;;8.95;;
83145;SDS011;73037;51.110;4.706;2023-10-13T09:22:50;19.75;;;10.13;;
83145;SDS011;73037;51.110;4.706;2023-10-13T09:25:26;29.55;;;16.77;;
83145;SDS011;73037;51.110;4.706;2023-10-13T09:28:23;17.88;;;7.57;;
83145;SDS011;73037;51.110;4.706;2023-10-13T09:30:52;24.63;;;11.50;;
83145;SDS011;73037;51.110;4.706;2023-10-13T09:33:22;19.75;;;8.77;;
83145;SDS011;73037;51.110;4.706;2023-10-13T09:36:04;20.33;;;10.48;;
83145;SDS011;73037;51.110;4.706;2023-10-13T09:38:37;17.95;;;8.45;;
83145;SDS011;73037;51.110;4.706;2023-10-13T09:41:07;16.10;;;7.80;;
83145;SDS011;73037;51.110;4.706;2023-10-13T09:43:51;14.73;;;7.15;;
83145;SDS011;73037;51.110;4.706;2023-10-13T09:46:21;19.58;;;9.45;;
83145;SDS011;73037;51.110;4.706;2023-10-13T09:48:54;14.32;;;7.00;;
83145;SDS011;73037;51.110;4.706;2023-10-13T09:51:39;14.50;;;5.63;;
83145;SDS011;73037;51.110;4.706;2023-10-13T09:54:33;13.88;;;6.10;;
83145;SDS011;73037;51.110;4.706;2023-10-13T09:57:12;12.00;;;6.10;;
83145;SDS011;73037;51.110;4.706;2023-10-13T09:59:48;12.25;;;5.30;;
83145;SDS011;73037;51.110;4.706;2023-10-13T10:02:18;12.30;;;5.03;;
83145;SDS011;73037;51.110;4.706;2023-10-13T10:04:53;12.13;;;5.00;;
83145;SDS011;73037;51.110;4.706;2023-10-13T10:07:40;12.43;;;5.57;;
83145;SDS011;73037;51.110;4.706;2023-10-13T10:10:09;15.02;;;5.63;;
83145;SDS011;73037;51.110;4.706;2023-10-13T10:12:43;11.95;;;5.07;;
83145;SDS011;73037;51.110;4.706;2023-10-13T10:15:19;13.15;;;4.78;;
83145;SDS011;73037;51.110;4.706;2023-10-13T10:18:18;11.98;;;5.20;;
83145;SDS011;73037;51.110;4.706;2023-10-13T10:20:47;13.93;;;5.63;;
83145;SDS011;73037;51.110;4.706;2023-10-13T10:23:26;13.43;;;5.35;;
83145;SDS011;73037;51.110;4.706;2023-10-13T10:25:58;13.13;;;5.40;;
83145;SDS011;73037;51.110;4.706;2023-10-13T10:28:41;15.10;;;5.20;;
83145;SDS011;73037;51.110;4.706;2023-10-13T10:31:09;14.10;;;4.88;;
83145;SDS011;73037;51.110;4.706;2023-10-13T10:33:41;17.23;;;6.18;;
83145;SDS011;73037;51.110;4.706;2023-10-13T10:36:08;16.58;;;5.55;;
83145;SDS011;73037;51.110;4.706;2023-10-13T10:38:53;14.95;;;5.45;;
83145;SDS011;73037;51.110;4.706;2023-10-13T10:41:27;17.65;;;5.57;;
83145;SDS011;73037;51.110;4.706;2023-10-13T10:44:08;12.02;;;5.10;;
83145;SDS011;73037;51.110;4.706;2023-10-13T10:46:40;9.07;;;5.05;;
83145;SDS011;73037;51.110;4.706;2023-10-13T10:49:16;9.77;;;5.25;;
83145;SDS011;73037;51.110;4.706;2023-10-13T10:52:04;10.43;;;4.57;;
83145;SDS011;73037;51.110;4.706;2023-10-13T10:54:39;14.10;;;5.70;;
83145;SDS011;73037;51.110;4.706;2023-10-13T10:57:09;14.35;;;4.75;;
83145;SDS011;73037;51.110;4.706;2023-10-13T10:59:42;10.70;;;5.10;;
83145;SDS011;73037;51.110;4.706;2023-10-13T11:02:08;16.73;;;5.60;;
83145;SDS011;73037;51.110;4.706;2023-10-13T11:04:33;17.67;;;5.05;;
83145;SDS011;73037;51.110;4.706;2023-10-13T11:07:05;17.77;;;5.28;;
83145;SDS011;73037;51.110;4.706;2023-10-13T11:09:34;11.23;;;4.85;;
83145;SDS011;73037;51.110;4.706;2023-10-13T11:12:11;13.50;;;5.43;;
83145;SDS011;73037;51.110;4.706;2023-10-13T11:14:44;13.30;;;5.45;;
83145;SDS011;73037;51.110;4.706;2023-10-13T11:17:20;15.93;;;5.63;;
83145;SDS011;73037;51.110;4.706;2023-10-13T11:19:51;12.98;;;5.03;;
83145;SDS011;73037;51.110;4.706;2023-10-13T11:22:17;13.50;;;4.78;;
83145;SDS011;73037;51.110;4.706;2023-10-13T11:25:07;15.23;;;5.70;;
83145;SDS011;73037;51.110;4.706;2023-10-13T11:27:39;14.52;;;5.93;;
83145;SDS011;73037;51.110;4.706;2023-10-13T11:30:18;18.08;;;5.75;;
83145;SDS011;73037;51.110;4.706;2023-10-13T11:33:30;12.65;;;5.70;;
83145;SDS011;73037;51.110;4.706;2023-10-13T11:35:35;16.60;;;5.70;;
83145;SDS011;73037;51.110;4.706;2023-10-13T11:38:14;17.08;;;6.32;;
83145;SDS011;73037;51.110;4.706;2023-10-13T11:40:50;17.23;;;5.72;;
83145;SDS011;73037;51.110;4.706;2023-10-13T11:43:26;17.70;;;5.78;;
83145;SDS011;73037;51.110;4.706;2023-10-13T11:45:52;14.38;;;6.13;;
83145;SDS011;73037;51.110;4.706;2023-10-13T11:48:20;14.07;;;5.50;;
83145;SDS011;73037;51.110;4.706;2023-10-13T11:53:25;15.25;;;5.75;;
83145;SDS011;73037;51.110;4.706;2023-10-13T11:55:54;16.70;;;5.68;;
83145;SDS011;73037;51.110;4.706;2023-10-13T11:58:21;16.67;;;5.43;;
83145;SDS011;73037;51.110;4.706;2023-10-13T12:00:46;14.93;;;5.57;;
83145;SDS011;73037;51.110;4.706;2023-10-13T12:03:31;14.93;;;5.63;;
83145;SDS011;73037;51.110;4.706;2023-10-13T12:06:15;13.90;;;5.68;;
83145;SDS011;73037;51.110;4.706;2023-10-13T12:08:59;17.98;;;6.13;;
83145;SDS011;73037;51.110;4.706;2023-10-13T12:11:37;14.38;;;5.97;;
83145;SDS011;73037;51.110;4.706;2023-10-13T12:14:13;14.45;;;5.45;;
83145;SDS011;73037;51.110;4.706;2023-10-13T12:16:46;16.17;;;5.68;;
83145;SDS011;73037;51.110;4.706;2023-10-13T12:19:22;15.02;;;5.85;;
83145;SDS011;73037;51.110;4.706;2023-10-13T12:21:52;15.13;;;5.53;;
83145;SDS011;73037;51.110;4.706;2023-10-13T12:26:56;16.45;;;5.43;;
83145;SDS011;73037;51.110;4.706;2023-10-13T12:31:48;12.35;;;4.80;;
83145;SDS011;73037;51.110;4.706;2023-10-13T12:34:33;11.52;;;4.95;;
83145;SDS011;73037;51.110;4.706;2023-10-13T12:37:19;15.15;;;5.18;;
83145;SDS011;73037;51.110;4.706;2023-10-13T12:40:06;10.82;;;4.75;;
83145;SDS011;73037;51.110;4.706;2023-10-13T12:42:56;11.90;;;5.03;;
83145;SDS011;73037;51.110;4.706;2023-10-13T12:45:40;16.02;;;4.40;;
83145;SDS011;73037;51.110;4.706;2023-10-13T12:48:29;14.70;;;4.60;;
83145;SDS011;73037;51.110;4.706;2023-10-13T12:51:13;13.45;;;4.47;;
83145;SDS011;73037;51.110;4.706;2023-10-13T12:53:48;16.40;;;4.60;;
83145;SDS011;73037;51.110;4.706;2023-10-13T12:56:15;12.13;;;4.65;;
83145;SDS011;73037;51.110;4.706;2023-10-13T12:58:41;13.52;;;5.00;;
83145;SDS011;73037;51.110;4.706;2023-10-13T13:01:16;15.20;;;5.05;;
83145;SDS011;73037;51.110;4.706;2023-10-13T13:03:46;13.35;;;4.93;;
83145;SDS011;73037;51.110;4.706;2023-10-13T13:06:15;10.63;;;4.57;;
83145;SDS011;73037;51.110;4.706;2023-10-13T13:08:42;12.70;;;4.78;;
83145;SDS011;73037;51.110;4.706;2023-10-13T13:11:09;14.00;;;4.85;;
83145;SDS011;73037;51.110;4.706;2023-10-13T13:13:36;10.85;;;4.50;;
83145;SDS011;73037;51.110;4.706;2023-10-13T13:16:02;13.40;;;4.45;;
83145;SDS011;73037;51.110;4.706;2023-10-13T13:18:28;15.20;;;4.93;;
83145;SDS011;73037;51.110;4.706;2023-10-13T13:20:54;14.43;;;5.03;;
83145;SDS011;73037;51.110;4.706;2023-10-13T13:23:23;13.27;;;5.68;;
83145;SDS011;73037;51.110;4.706;2023-10-13T13:25:51;15.02;;;6.05;;
83145;SDS011;73037;51.110;4.706;2023-10-13T13:28:17;14.65;;;6.18;;
83145;SDS011;73037;51.110;4.706;2023-10-13T13:30:43;34.83;;;12.52;;
83145;SDS011;73037;51.110;4.706;2023-10-13T13:33:11;24.15;;;8.55;;
83145;SDS011;73037;51.110;4.706;2023-10-13T13:35:38;15.75;;;6.05;;
83145;SDS011;73037;51.110;4.706;2023-10-13T13:38:04;16.08;;;6.38;;
83145;SDS011;73037;51.110;4.706;2023-10-13T13:40:42;17.05;;;7.60;;
83145;SDS011;73037;51.110;4.706;2023-10-13T13:43:13;20.40;;;7.70;;
83145;SDS011;73037;51.110;4.706;2023-10-13T13:46:00;14.05;;;7.40;;
83145;SDS011;73037;51.110;4.706;2023-10-13T13:48:27;18.13;;;8.35;;
83145;SDS011;73037;51.110;4.706;2023-10-13T13:53:30;14.45;;;5.35;;
83145;SDS011;73037;51.110;4.706;2023-10-13T13:56:02;13.57;;;5.18;;
83145;SDS011;73037;51.110;4.706;2023-10-13T13:58:28;10.60;;;4.70;;
83145;SDS011;73037;51.110;4.706;2023-10-13T14:01:01;11.30;;;4.85;;
83145;SDS011;73037;51.110;4.706;2023-10-13T14:03:43;12.02;;;4.60;;
83145;SDS011;73037;51.110;4.706;2023-10-13T14:06:14;12.63;;;5.05;;
83145;SDS011;73037;51.110;4.706;2023-10-13T14:08:52;17.70;;;7.32;;
83145;SDS011;73037;51.110;4.706;2023-10-13T14:11:22;14.82;;;5.88;;
83145;SDS011;73037;51.110;4.706;2023-10-13T14:14:15;12.70;;;4.60;;
83145;SDS011;73037;51.110;4.706;2023-10-13T14:16:50;14.88;;;5.32;;
83145;SDS011;73037;51.110;4.706;2023-10-13T14:19:16;10.30;;;4.60;;
83145;SDS011;73037;51.110;4.706;2023-10-13T14:21:57;12.82;;;4.40;;
83145;SDS011;73037;51.110;4.706;2023-10-13T14:24:24;10.23;;;4.32;;
83145;SDS011;73037;51.110;4.706;2023-10-13T14:26:58;10.68;;;4.60;;
83145;SDS011;73037;51.110;4.706;2023-10-13T14:29:34;12.73;;;4.45;;
83145;SDS011;73037;51.110;4.706;2023-10-13T14:32:05;5.90;;;3.55;;
83145;SDS011;73037;51.110;4.706;2023-10-13T14:34:42;10.85;;;4.38;;
83145;SDS011;73037;51.110;4.706;2023-10-13T14:37:10;11.02;;;4.50;;
83145;SDS011;73037;51.110;4.706;2023-10-13T14:39:38;9.85;;;4.20;;
83145;SDS011;73037;51.110;4.706;2023-10-13T14:42:04;14.20;;;4.63;;
83145;SDS011;73037;51.110;4.706;2023-10-13T14:47:02;9.55;;;4.43;;
83145;SDS011;73037;51.110;4.706;2023-10-13T14:49:30;8.88;;;4.60;;
83145;SDS011;73037;51.110;4.706;2023-10-13T14:51:56;16.20;;;4.65;;
83145;SDS011;73037;51.110;4.706;2023-10-13T14:54:24;10.80;;;4.72;;
83145;SDS011;73037;51.110;4.706;2023-10-13T14:57:06;12.85;;;4.40;;
83145;SDS011;73037;51.110;4.706;2023-10-13T14:59:32;10.68;;;4.63;;
83145;SDS011;73037;51.110;4.706;2023-10-13T15:02:03;9.77;;;5.07;;
83145;SDS011;73037;51.110;4.706;2023-10-13T15:04:29;14.20;;;5.10;;
83145;SDS011;73037;51.110;4.706;2023-10-13T15:06:58;9.25;;;4.35;;
83145;SDS011;73037;51.110;4.706;2023-10-13T15:09:26;14.32;;;4.35;;
83145;SDS011;73037;51.110;4.706;2023-10-13T15:11:53;10.05;;;4.63;;
83145;SDS011;73037;51.110;4.706;2023-10-13T15:14:19;14.07;;;4.72;;
83145;SDS011;73037;51.110;4.706;2023-10-13T15:16:48;10.90;;;4.63;;
83145;SDS011;73037;51.110;4.706;2023-10-13T15:21:41;9.95;;;4.38;;
83145;SDS011;73037;51.110;4.706;2023-10-13T15:24:08;11.35;;;4.75;;
83145;SDS011;73037;51.110;4.706;2023-10-13T15:26:46;12.73;;;4.13;;
83145;SDS011;73037;51.110;4.706;2023-10-13T15:29:15;12.65;;;4.50;;
83145;SDS011;73037;51.110;4.706;2023-10-13T15:31:44;15.13;;;4.75;;
83145;SDS011;73037;51.110;4.706;2023-10-13T15:34:30;12.68;;;4.68;;
83145;SDS011;73037;51.110;4.706;2023-10-13T15:36:57;12.45;;;4.82;;
83145;SDS011;73037;51.110;4.706;2023-10-13T15:39:24;14.73;;;4.43;;
83145;SDS011;73037;51.110;4.706;2023-10-13T15:41:53;13.35;;;4.95;;
83145;SDS011;73037;51.110;4.706;2023-10-13T15:44:23;9.80;;;4.63;;
83145;SDS011;73037;51.110;4.706;2023-10-13T15:46:53;11.25;;;4.90;;
83145;SDS011;73037;51.110;4.706;2023-10-13T15:49:20;16.85;;;4.78;;